East Angus, Canada
Current Conditions -  °F | °C
As of 1:28 PM on Thursday 23 Oct 2014 (Local Time) from CYSC Reporting Station
Overcast Overcast  
Wind Chill: 39°   Ceiling: 600
Heat Index: 45°   Visibility: NA
Dew Point: 43°   Wind: 10mph
Humidity: 93%   Direction: 30°NNE
Pressure: 29.94"   Gusts: NA
Location:  45.48°N, 71.67°W
Report Text: CYSC 231728Z AUTO 03009KT 360V060 BKN006 OVC015 07/06 A2994 RMK PCPN 1.8MM PAST HR WX MISG VIS MISG PCPN MISG SLP145
Loading
Personal Weather Stations






























Interactive Weather Map
Tropical Storm Tracking
New forecast layout! Learn more

10-Day Weather Forecast

Advertisements
Track Severe Weather on mobile